sensor_id;sensor_type;location;lat;lon;timestamp;P1;durP1;ratioP1;P2;durP2;ratioP2
24650;SDS011;12783;48.824;8.662;2022-08-11T00:00:54;1.85;;;1.20;;
24650;SDS011;12783;48.824;8.662;2022-08-11T00:03:22;1.40;;;1.30;;
24650;SDS011;12783;48.824;8.662;2022-08-11T00:06:08;5.05;;;1.60;;
24650;SDS011;12783;48.824;8.662;2022-08-11T00:08:35;5.32;;;1.60;;
24650;SDS011;12783;48.824;8.662;2022-08-11T00:11:03;4.68;;;1.50;;
24650;SDS011;12783;48.824;8.662;2022-08-11T00:13:40;3.05;;;1.50;;
24650;SDS011;12783;48.824;8.662;2022-08-11T00:16:21;2.53;;;1.40;;
24650;SDS011;12783;48.824;8.662;2022-08-11T00:18:51;3.03;;;1.45;;
24650;SDS011;12783;48.824;8.662;2022-08-11T00:21:19;3.20;;;1.40;;
24650;SDS011;12783;48.824;8.662;2022-08-11T00:24:07;1.95;;;1.48;;
24650;SDS011;12783;48.824;8.662;2022-08-11T00:26:35;2.30;;;1.40;;
24650;SDS011;12783;48.824;8.662;2022-08-11T00:29:08;6.60;;;1.50;;
24650;SDS011;12783;48.824;8.662;2022-08-11T00:31:36;4.10;;;1.60;;
24650;SDS011;12783;48.824;8.662;2022-08-11T00:34:04;2.90;;;1.50;;
24650;SDS011;12783;48.824;8.662;2022-08-11T00:36:42;2.15;;;1.10;;
24650;SDS011;12783;48.824;8.662;2022-08-11T00:39:13;2.33;;;1.27;;
24650;SDS011;12783;48.824;8.662;2022-08-11T00:44:54;1.95;;;1.10;;
24650;SDS011;12783;48.824;8.662;2022-08-11T00:50:11;4.78;;;1.63;;
24650;SDS011;12783;48.824;8.662;2022-08-11T00:52:53;3.73;;;1.30;;
24650;SDS011;12783;48.824;8.662;2022-08-11T01:01:58;2.25;;;1.70;;
24650;SDS011;12783;48.824;8.662;2022-08-11T01:04:48;3.15;;;1.30;;
24650;SDS011;12783;48.824;8.662;2022-08-11T01:13:46;6.70;;;1.70;;
24650;SDS011;12783;48.824;8.662;2022-08-11T01:22:58;4.32;;;1.60;;
24650;SDS011;12783;48.824;8.662;2022-08-11T01:43:09;2.25;;;1.42;;
24650;SDS011;12783;48.824;8.662;2022-08-11T01:46:11;2.45;;;1.50;;
24650;SDS011;12783;48.824;8.662;2022-08-11T01:52:24;1.95;;;1.40;;
24650;SDS011;12783;48.824;8.662;2022-08-11T01:57:48;2.17;;;1.40;;
24650;SDS011;12783;48.824;8.662;2022-08-11T02:00:19;2.63;;;1.40;;
24650;SDS011;12783;48.824;8.662;2022-08-11T02:02:49;2.42;;;1.70;;
24650;SDS011;12783;48.824;8.662;2022-08-11T02:11:26;2.90;;;1.60;;
24650;SDS011;12783;48.824;8.662;2022-08-11T02:14:09;3.05;;;1.27;;
24650;SDS011;12783;48.824;8.662;2022-08-11T02:19:43;5.05;;;1.67;;
24650;SDS011;12783;48.824;8.662;2022-08-11T02:22:41;2.67;;;1.40;;
24650;SDS011;12783;48.824;8.662;2022-08-11T02:26:02;4.53;;;1.40;;
24650;SDS011;12783;48.824;8.662;2022-08-11T02:28:48;7.18;;;1.60;;
24650;SDS011;12783;48.824;8.662;2022-08-11T02:40:42;2.10;;;1.60;;
24650;SDS011;12783;48.824;8.662;2022-08-11T02:43:30;2.33;;;1.60;;
24650;SDS011;12783;48.824;8.662;2022-08-11T02:46:24;4.40;;;1.85;;
24650;SDS011;12783;48.824;8.662;2022-08-11T02:52:13;3.23;;;1.50;;
24650;SDS011;12783;48.824;8.662;2022-08-11T02:54:52;3.97;;;1.65;;
24650;SDS011;12783;48.824;8.662;2022-08-11T02:58:09;1.95;;;1.55;;
24650;SDS011;12783;48.824;8.662;2022-08-11T03:00:52;7.20;;;1.90;;
24650;SDS011;12783;48.824;8.662;2022-08-11T03:10:09;2.00;;;1.60;;
24650;SDS011;12783;48.824;8.662;2022-08-11T03:12:56;3.63;;;1.67;;
24650;SDS011;12783;48.824;8.662;2022-08-11T03:22:00;2.95;;;1.73;;
24650;SDS011;12783;48.824;8.662;2022-08-11T03:24:48;8.68;;;1.67;;
24650;SDS011;12783;48.824;8.662;2022-08-11T03:41:36;6.32;;;1.50;;
24650;SDS011;12783;48.824;8.662;2022-08-11T03:44:45;1.70;;;1.60;;
24650;SDS011;12783;48.824;8.662;2022-08-11T03:47:43;1.95;;;1.55;;
24650;SDS011;12783;48.824;8.662;2022-08-11T03:59:21;2.25;;;1.70;;
24650;SDS011;12783;48.824;8.662;2022-08-11T04:05:04;3.78;;;1.67;;
24650;SDS011;12783;48.824;8.662;2022-08-11T04:22:07;3.00;;;1.77;;
24650;SDS011;12783;48.824;8.662;2022-08-11T04:24:53;2.42;;;1.83;;
24650;SDS011;12783;48.824;8.662;2022-08-11T04:27:26;4.07;;;1.98;;
24650;SDS011;12783;48.824;8.662;2022-08-11T04:30:15;5.43;;;1.70;;
24650;SDS011;12783;48.824;8.662;2022-08-11T04:53:21;4.05;;;1.75;;
24650;SDS011;12783;48.824;8.662;2022-08-11T04:56:19;2.38;;;1.80;;
24650;SDS011;12783;48.824;8.662;2022-08-11T05:02:17;2.67;;;1.88;;
24650;SDS011;12783;48.824;8.662;2022-08-11T05:04:55;3.55;;;1.88;;
24650;SDS011;12783;48.824;8.662;2022-08-11T05:07:57;2.88;;;1.90;;
24650;SDS011;12783;48.824;8.662;2022-08-11T05:16:29;6.43;;;2.20;;
24650;SDS011;12783;48.824;8.662;2022-08-11T05:19:25;5.45;;;1.88;;
24650;SDS011;12783;48.824;8.662;2022-08-11T05:22:11;6.93;;;2.03;;
24650;SDS011;12783;48.824;8.662;2022-08-11T05:25:02;3.58;;;2.08;;
24650;SDS011;12783;48.824;8.662;2022-08-11T05:28:12;4.45;;;2.20;;
24650;SDS011;12783;48.824;8.662;2022-08-11T05:31:17;5.97;;;2.15;;
24650;SDS011;12783;48.824;8.662;2022-08-11T05:34:11;3.08;;;2.00;;
24650;SDS011;12783;48.824;8.662;2022-08-11T05:39:52;2.20;;;1.80;;
24650;SDS011;12783;48.824;8.662;2022-08-11T05:42:42;2.33;;;2.03;;
24650;SDS011;12783;48.824;8.662;2022-08-11T05:45:33;3.85;;;2.40;;
24650;SDS011;12783;48.824;8.662;2022-08-11T05:48:33;2.92;;;1.92;;
24650;SDS011;12783;48.824;8.662;2022-08-11T05:51:20;2.30;;;1.90;;
24650;SDS011;12783;48.824;8.662;2022-08-11T05:54:21;6.53;;;1.92;;
24650;SDS011;12783;48.824;8.662;2022-08-11T05:57:21;2.47;;;2.00;;
24650;SDS011;12783;48.824;8.662;2022-08-11T06:00:17;3.17;;;1.90;;
24650;SDS011;12783;48.824;8.662;2022-08-11T06:02:45;5.30;;;2.10;;
24650;SDS011;12783;48.824;8.662;2022-08-11T06:05:15;5.47;;;1.88;;
24650;SDS011;12783;48.824;8.662;2022-08-11T06:07:45;2.60;;;1.88;;
24650;SDS011;12783;48.824;8.662;2022-08-11T06:10:25;4.72;;;2.15;;
24650;SDS011;12783;48.824;8.662;2022-08-11T06:13:00;5.72;;;1.98;;
24650;SDS011;12783;48.824;8.662;2022-08-11T06:15:27;3.40;;;2.10;;
24650;SDS011;12783;48.824;8.662;2022-08-11T06:17:55;4.13;;;1.88;;
24650;SDS011;12783;48.824;8.662;2022-08-11T06:20:24;2.42;;;2.10;;
24650;SDS011;12783;48.824;8.662;2022-08-11T06:22:55;2.13;;;1.92;;
24650;SDS011;12783;48.824;8.662;2022-08-11T06:25:30;3.53;;;2.15;;
24650;SDS011;12783;48.824;8.662;2022-08-11T06:28:04;3.65;;;1.83;;
24650;SDS011;12783;48.824;8.662;2022-08-11T06:30:42;6.03;;;2.50;;
24650;SDS011;12783;48.824;8.662;2022-08-11T06:33:15;2.45;;;2.10;;
24650;SDS011;12783;48.824;8.662;2022-08-11T06:35:56;4.30;;;2.07;;
24650;SDS011;12783;48.824;8.662;2022-08-11T06:38:45;4.85;;;2.22;;
24650;SDS011;12783;48.824;8.662;2022-08-11T06:41:51;4.80;;;2.10;;
24650;SDS011;12783;48.824;8.662;2022-08-11T06:44:29;2.72;;;2.10;;
24650;SDS011;12783;48.824;8.662;2022-08-11T06:47:10;4.97;;;1.92;;
24650;SDS011;12783;48.824;8.662;2022-08-11T06:49:39;5.43;;;2.10;;
24650;SDS011;12783;48.824;8.662;2022-08-11T06:52:34;3.40;;;2.05;;
24650;SDS011;12783;48.824;8.662;2022-08-11T06:55:13;2.97;;;2.00;;
24650;SDS011;12783;48.824;8.662;2022-08-11T06:58:25;3.78;;;2.20;;
24650;SDS011;12783;48.824;8.662;2022-08-11T07:01:17;3.65;;;1.83;;
24650;SDS011;12783;48.824;8.662;2022-08-11T07:03:55;5.45;;;2.17;;
24650;SDS011;12783;48.824;8.662;2022-08-11T07:09:30;6.57;;;2.22;;
24650;SDS011;12783;48.824;8.662;2022-08-11T07:12:36;2.42;;;1.70;;
24650;SDS011;12783;48.824;8.662;2022-08-11T07:15:28;3.67;;;2.10;;
24650;SDS011;12783;48.824;8.662;2022-08-11T07:18:31;3.50;;;2.10;;
24650;SDS011;12783;48.824;8.662;2022-08-11T07:21:23;4.50;;;2.20;;
24650;SDS011;12783;48.824;8.662;2022-08-11T07:24:39;6.40;;;2.10;;
24650;SDS011;12783;48.824;8.662;2022-08-11T07:27:35;3.22;;;1.85;;
24650;SDS011;12783;48.824;8.662;2022-08-11T07:30:25;3.40;;;2.10;;
24650;SDS011;12783;48.824;8.662;2022-08-11T07:32:52;2.85;;;1.77;;
24650;SDS011;12783;48.824;8.662;2022-08-11T07:35:23;4.32;;;2.10;;
24650;SDS011;12783;48.824;8.662;2022-08-11T07:38:06;3.38;;;2.00;;
24650;SDS011;12783;48.824;8.662;2022-08-11T07:40:47;3.45;;;1.80;;
24650;SDS011;12783;48.824;8.662;2022-08-11T07:43:14;4.40;;;1.90;;
24650;SDS011;12783;48.824;8.662;2022-08-11T07:45:42;2.25;;;1.60;;
24650;SDS011;12783;48.824;8.662;2022-08-11T07:48:27;2.90;;;1.90;;
24650;SDS011;12783;48.824;8.662;2022-08-11T07:51:17;6.05;;;1.88;;
24650;SDS011;12783;48.824;8.662;2022-08-11T07:54:03;5.45;;;2.38;;
24650;SDS011;12783;48.824;8.662;2022-08-11T07:56:41;5.57;;;2.00;;
24650;SDS011;12783;48.824;8.662;2022-08-11T07:59:21;3.83;;;1.73;;
24650;SDS011;12783;48.824;8.662;2022-08-11T08:02:26;3.00;;;1.67;;
24650;SDS011;12783;48.824;8.662;2022-08-11T08:05:13;6.97;;;2.17;;
24650;SDS011;12783;48.824;8.662;2022-08-11T08:08:00;4.00;;;1.90;;
24650;SDS011;12783;48.824;8.662;2022-08-11T08:10:46;3.40;;;2.13;;
24650;SDS011;12783;48.824;8.662;2022-08-11T08:13:32;5.50;;;1.98;;
24650;SDS011;12783;48.824;8.662;2022-08-11T08:16:18;4.88;;;1.92;;
24650;SDS011;12783;48.824;8.662;2022-08-11T08:19:04;5.15;;;1.83;;
24650;SDS011;12783;48.824;8.662;2022-08-11T08:21:31;3.78;;;2.05;;
24650;SDS011;12783;48.824;8.662;2022-08-11T08:23:58;5.60;;;2.00;;
24650;SDS011;12783;48.824;8.662;2022-08-11T08:26:25;3.30;;;2.10;;
24650;SDS011;12783;48.824;8.662;2022-08-11T08:29:17;10.50;;;2.17;;
24650;SDS011;12783;48.824;8.662;2022-08-11T08:32:03;4.38;;;2.40;;
24650;SDS011;12783;48.824;8.662;2022-08-11T08:34:31;4.20;;;2.10;;
24650;SDS011;12783;48.824;8.662;2022-08-11T08:36:59;7.65;;;2.60;;
24650;SDS011;12783;48.824;8.662;2022-08-11T08:39:25;3.33;;;1.90;;
24650;SDS011;12783;48.824;8.662;2022-08-11T08:41:53;9.75;;;2.35;;
24650;SDS011;12783;48.824;8.662;2022-08-11T08:44:21;4.85;;;2.10;;
24650;SDS011;12783;48.824;8.662;2022-08-11T08:47:08;13.48;;;2.60;;
24650;SDS011;12783;48.824;8.662;2022-08-11T08:49:38;5.60;;;1.90;;
24650;SDS011;12783;48.824;8.662;2022-08-11T08:52:19;5.28;;;2.10;;
24650;SDS011;12783;48.824;8.662;2022-08-11T08:55:05;9.52;;;2.00;;
24650;SDS011;12783;48.824;8.662;2022-08-11T08:57:33;9.48;;;2.22;;
24650;SDS011;12783;48.824;8.662;2022-08-11T09:00:04;5.80;;;1.85;;
24650;SDS011;12783;48.824;8.662;2022-08-11T09:02:34;2.30;;;1.95;;
24650;SDS011;12783;48.824;8.662;2022-08-11T09:05:02;2.97;;;1.90;;
24650;SDS011;12783;48.824;8.662;2022-08-11T09:07:30;4.45;;;1.80;;
24650;SDS011;12783;48.824;8.662;2022-08-11T09:10:05;5.50;;;2.10;;
24650;SDS011;12783;48.824;8.662;2022-08-11T09:12:33;5.22;;;1.88;;
24650;SDS011;12783;48.824;8.662;2022-08-11T09:15:18;2.50;;;1.80;;
24650;SDS011;12783;48.824;8.662;2022-08-11T09:17:55;6.97;;;1.70;;
24650;SDS011;12783;48.824;8.662;2022-08-11T09:20:32;3.55;;;1.92;;
24650;SDS011;12783;48.824;8.662;2022-08-11T09:23:00;6.80;;;2.17;;
24650;SDS011;12783;48.824;8.662;2022-08-11T09:26:08;5.47;;;2.35;;
24650;SDS011;12783;48.824;8.662;2022-08-11T09:28:56;9.75;;;2.10;;
24650;SDS011;12783;48.824;8.662;2022-08-11T09:31:24;2.90;;;1.90;;
24650;SDS011;12783;48.824;8.662;2022-08-11T09:33:53;4.88;;;1.70;;
24650;SDS011;12783;48.824;8.662;2022-08-11T09:36:20;5.53;;;2.35;;
24650;SDS011;12783;48.824;8.662;2022-08-11T09:39:05;6.90;;;2.20;;
24650;SDS011;12783;48.824;8.662;2022-08-11T09:41:51;3.33;;;2.03;;
24650;SDS011;12783;48.824;8.662;2022-08-11T09:44:27;4.93;;;2.10;;
24650;SDS011;12783;48.824;8.662;2022-08-11T09:49:51;6.38;;;2.00;;
24650;SDS011;12783;48.824;8.662;2022-08-11T09:52:21;4.05;;;2.03;;
24650;SDS011;12783;48.824;8.662;2022-08-11T09:54:49;8.82;;;2.45;;
24650;SDS011;12783;48.824;8.662;2022-08-11T09:57:17;4.28;;;1.92;;
24650;SDS011;12783;48.824;8.662;2022-08-11T10:00:08;2.60;;;1.73;;
24650;SDS011;12783;48.824;8.662;2022-08-11T10:02:42;2.28;;;2.03;;
24650;SDS011;12783;48.824;8.662;2022-08-11T10:05:10;4.45;;;1.90;;
24650;SDS011;12783;48.824;8.662;2022-08-11T10:07:59;5.07;;;2.00;;
24650;SDS011;12783;48.824;8.662;2022-08-11T10:10:26;5.32;;;1.70;;
24650;SDS011;12783;48.824;8.662;2022-08-11T10:12:58;5.97;;;1.80;;
24650;SDS011;12783;48.824;8.662;2022-08-11T10:15:29;2.83;;;1.65;;
24650;SDS011;12783;48.824;8.662;2022-08-11T10:18:05;4.60;;;1.80;;
24650;SDS011;12783;48.824;8.662;2022-08-11T10:20:54;3.42;;;1.70;;
24650;SDS011;12783;48.824;8.662;2022-08-11T10:23:34;3.22;;;1.70;;
24650;SDS011;12783;48.824;8.662;2022-08-11T10:26:30;3.17;;;1.75;;
24650;SDS011;12783;48.824;8.662;2022-08-11T10:29:23;2.42;;;1.75;;
24650;SDS011;12783;48.824;8.662;2022-08-11T10:32:19;2.53;;;1.80;;
24650;SDS011;12783;48.824;8.662;2022-08-11T10:35:25;2.35;;;1.77;;
24650;SDS011;12783;48.824;8.662;2022-08-11T10:37:53;2.33;;;1.65;;
24650;SDS011;12783;48.824;8.662;2022-08-11T10:40:36;3.13;;;1.50;;
24650;SDS011;12783;48.824;8.662;2022-08-11T10:43:04;5.55;;;1.50;;
24650;SDS011;12783;48.824;8.662;2022-08-11T10:45:36;7.47;;;2.00;;
24650;SDS011;12783;48.824;8.662;2022-08-11T10:48:26;1.60;;;1.50;;
24650;SDS011;12783;48.824;8.662;2022-08-11T10:50:54;3.42;;;1.60;;
24650;SDS011;12783;48.824;8.662;2022-08-11T10:53:44;2.58;;;1.48;;
24650;SDS011;12783;48.824;8.662;2022-08-11T10:56:37;5.65;;;1.52;;
24650;SDS011;12783;48.824;8.662;2022-08-11T10:59:23;3.65;;;1.55;;
24650;SDS011;12783;48.824;8.662;2022-08-11T11:01:53;2.17;;;1.40;;
24650;SDS011;12783;48.824;8.662;2022-08-11T11:04:22;2.33;;;1.33;;
24650;SDS011;12783;48.824;8.662;2022-08-11T11:07:03;2.63;;;1.50;;
24650;SDS011;12783;48.824;8.662;2022-08-11T11:09:46;3.33;;;1.40;;
24650;SDS011;12783;48.824;8.662;2022-08-11T11:12:34;5.65;;;1.67;;
24650;SDS011;12783;48.824;8.662;2022-08-11T11:15:25;15.38;;;1.60;;
24650;SDS011;12783;48.824;8.662;2022-08-11T11:18:14;1.60;;;1.50;;
24650;SDS011;12783;48.824;8.662;2022-08-11T11:20:46;2.80;;;1.60;;
24650;SDS011;12783;48.824;8.662;2022-08-11T11:23:18;2.63;;;1.40;;
24650;SDS011;12783;48.824;8.662;2022-08-11T11:37:18;2.85;;;1.48;;
24650;SDS011;12783;48.824;8.662;2022-08-11T11:39:46;1.40;;;1.30;;
24650;SDS011;12783;48.824;8.662;2022-08-11T11:42:13;3.58;;;1.52;;
24650;SDS011;12783;48.824;8.662;2022-08-11T11:44:42;2.03;;;1.33;;
24650;SDS011;12783;48.824;8.662;2022-08-11T11:47:10;1.85;;;1.40;;
24650;SDS011;12783;48.824;8.662;2022-08-11T11:49:37;2.78;;;1.63;;
24650;SDS011;12783;48.824;8.662;2022-08-11T11:52:12;6.00;;;1.80;;
24650;SDS011;12783;48.824;8.662;2022-08-11T11:54:48;6.38;;;1.70;;
24650;SDS011;12783;48.824;8.662;2022-08-11T11:57:18;5.47;;;1.60;;
24650;SDS011;12783;48.824;8.662;2022-08-11T12:00:05;2.40;;;1.52;;
24650;SDS011;12783;48.824;8.662;2022-08-11T12:03:00;4.43;;;1.40;;
24650;SDS011;12783;48.824;8.662;2022-08-11T12:05:30;5.05;;;1.20;;
24650;SDS011;12783;48.824;8.662;2022-08-11T12:07:57;5.20;;;1.48;;
24650;SDS011;12783;48.824;8.662;2022-08-11T12:10:48;4.57;;;1.33;;
24650;SDS011;12783;48.824;8.662;2022-08-11T12:13:42;7.32;;;1.50;;
24650;SDS011;12783;48.824;8.662;2022-08-11T12:16:11;2.45;;;1.30;;
24650;SDS011;12783;48.824;8.662;2022-08-11T12:18:59;1.27;;;1.13;;
24650;SDS011;12783;48.824;8.662;2022-08-11T12:21:27;2.00;;;1.35;;
24650;SDS011;12783;48.824;8.662;2022-08-11T12:23:55;4.28;;;1.30;;
24650;SDS011;12783;48.824;8.662;2022-08-11T12:26:41;3.08;;;1.58;;
24650;SDS011;12783;48.824;8.662;2022-08-11T12:29:34;3.10;;;1.20;;
24650;SDS011;12783;48.824;8.662;2022-08-11T12:32:05;3.72;;;1.52;;
24650;SDS011;12783;48.824;8.662;2022-08-11T12:34:32;3.35;;;1.63;;
24650;SDS011;12783;48.824;8.662;2022-08-11T12:37:00;3.20;;;1.30;;
24650;SDS011;12783;48.824;8.662;2022-08-11T12:39:33;2.38;;;1.65;;
24650;SDS011;12783;48.824;8.662;2022-08-11T12:42:41;1.92;;;1.20;;
24650;SDS011;12783;48.824;8.662;2022-08-11T12:45:33;3.55;;;1.73;;
24650;SDS011;12783;48.824;8.662;2022-08-11T12:51:11;2.08;;;1.50;;
24650;SDS011;12783;48.824;8.662;2022-08-11T12:57:06;2.92;;;1.15;;
24650;SDS011;12783;48.824;8.662;2022-08-11T13:00:04;2.10;;;1.33;;
24650;SDS011;12783;48.824;8.662;2022-08-11T13:02:50;1.35;;;1.08;;
24650;SDS011;12783;48.824;8.662;2022-08-11T13:05:36;2.33;;;1.40;;
24650;SDS011;12783;48.824;8.662;2022-08-11T13:10:38;1.95;;;1.40;;
24650;SDS011;12783;48.824;8.662;2022-08-11T13:13:24;5.30;;;1.42;;
24650;SDS011;12783;48.824;8.662;2022-08-11T13:16:12;7.78;;;1.90;;
24650;SDS011;12783;48.824;8.662;2022-08-11T13:18:40;2.50;;;1.40;;
24650;SDS011;12783;48.824;8.662;2022-08-11T13:21:11;5.75;;;1.95;;
24650;SDS011;12783;48.824;8.662;2022-08-11T13:23:46;2.35;;;1.30;;
24650;SDS011;12783;48.824;8.662;2022-08-11T13:26:27;5.50;;;1.58;;
24650;SDS011;12783;48.824;8.662;2022-08-11T13:29:13;2.88;;;1.73;;
24650;SDS011;12783;48.824;8.662;2022-08-11T13:31:48;5.75;;;1.48;;
24650;SDS011;12783;48.824;8.662;2022-08-11T13:34:16;3.50;;;1.52;;
24650;SDS011;12783;48.824;8.662;2022-08-11T13:36:45;2.45;;;1.58;;
24650;SDS011;12783;48.824;8.662;2022-08-11T13:39:13;1.98;;;1.30;;
24650;SDS011;12783;48.824;8.662;2022-08-11T13:41:40;3.72;;;1.38;;
24650;SDS011;12783;48.824;8.662;2022-08-11T13:44:10;2.88;;;1.38;;
24650;SDS011;12783;48.824;8.662;2022-08-11T13:46:43;4.43;;;1.60;;
24650;SDS011;12783;48.824;8.662;2022-08-11T13:49:10;3.28;;;1.50;;
24650;SDS011;12783;48.824;8.662;2022-08-11T13:51:41;3.17;;;1.38;;
24650;SDS011;12783;48.824;8.662;2022-08-11T13:54:18;3.90;;;1.70;;
24650;SDS011;12783;48.824;8.662;2022-08-11T13:56:49;5.40;;;1.38;;
24650;SDS011;12783;48.824;8.662;2022-08-11T13:59:18;3.30;;;1.65;;
24650;SDS011;12783;48.824;8.662;2022-08-11T14:01:54;3.25;;;1.48;;
24650;SDS011;12783;48.824;8.662;2022-08-11T14:04:43;4.13;;;1.50;;
24650;SDS011;12783;48.824;8.662;2022-08-11T14:07:16;3.90;;;1.48;;
24650;SDS011;12783;48.824;8.662;2022-08-11T14:09:45;1.92;;;1.23;;
24650;SDS011;12783;48.824;8.662;2022-08-11T14:12:25;3.03;;;1.50;;
24650;SDS011;12783;48.824;8.662;2022-08-11T14:15:15;1.50;;;1.13;;
24650;SDS011;12783;48.824;8.662;2022-08-11T14:17:54;1.95;;;1.40;;
24650;SDS011;12783;48.824;8.662;2022-08-11T14:20:30;6.43;;;1.45;;
24650;SDS011;12783;48.824;8.662;2022-08-11T14:23:19;2.72;;;1.40;;
24650;SDS011;12783;48.824;8.662;2022-08-11T14:25:53;1.80;;;1.38;;
24650;SDS011;12783;48.824;8.662;2022-08-11T14:28:39;4.53;;;1.25;;
24650;SDS011;12783;48.824;8.662;2022-08-11T14:31:11;2.35;;;1.38;;
24650;SDS011;12783;48.824;8.662;2022-08-11T14:33:39;2.08;;;1.23;;
24650;SDS011;12783;48.824;8.662;2022-08-11T14:36:27;3.35;;;1.50;;
24650;SDS011;12783;48.824;8.662;2022-08-11T14:38:56;2.28;;;1.48;;
24650;SDS011;12783;48.824;8.662;2022-08-11T14:41:23;4.38;;;1.52;;
24650;SDS011;12783;48.824;8.662;2022-08-11T14:44:30;2.15;;;1.48;;
24650;SDS011;12783;48.824;8.662;2022-08-11T14:47:16;3.97;;;1.40;;
24650;SDS011;12783;48.824;8.662;2022-08-11T14:49:50;2.22;;;1.40;;
24650;SDS011;12783;48.824;8.662;2022-08-11T14:52:35;2.10;;;1.27;;
24650;SDS011;12783;48.824;8.662;2022-08-11T14:55:03;4.97;;;1.30;;
24650;SDS011;12783;48.824;8.662;2022-08-11T14:57:49;6.07;;;1.30;;
24650;SDS011;12783;48.824;8.662;2022-08-11T15:00:21;2.20;;;1.27;;
24650;SDS011;12783;48.824;8.662;2022-08-11T15:02:48;4.40;;;1.45;;
24650;SDS011;12783;48.824;8.662;2022-08-11T15:05:35;6.35;;;1.67;;
24650;SDS011;12783;48.824;8.662;2022-08-11T15:08:23;1.30;;;1.20;;
24650;SDS011;12783;48.824;8.662;2022-08-11T15:11:34;1.40;;;1.30;;
24650;SDS011;12783;48.824;8.662;2022-08-11T15:14:19;2.20;;;1.38;;
24650;SDS011;12783;48.824;8.662;2022-08-11T15:17:06;1.45;;;1.20;;
24650;SDS011;12783;48.824;8.662;2022-08-11T15:19:35;9.65;;;1.23;;
24650;SDS011;12783;48.824;8.662;2022-08-11T15:22:24;2.75;;;1.13;;
24650;SDS011;12783;48.824;8.662;2022-08-11T15:25:09;1.55;;;1.25;;
24650;SDS011;12783;48.824;8.662;2022-08-11T15:27:36;2.53;;;1.58;;
24650;SDS011;12783;48.824;8.662;2022-08-11T15:30:23;5.53;;;1.13;;
24650;SDS011;12783;48.824;8.662;2022-08-11T15:33:10;2.38;;;1.33;;
24650;SDS011;12783;48.824;8.662;2022-08-11T15:35:55;1.25;;;1.15;;
24650;SDS011;12783;48.824;8.662;2022-08-11T15:38:42;3.97;;;1.05;;
24650;SDS011;12783;48.824;8.662;2022-08-11T15:41:13;3.58;;;1.30;;
24650;SDS011;12783;48.824;8.662;2022-08-11T15:44:01;2.80;;;1.40;;
24650;SDS011;12783;48.824;8.662;2022-08-11T15:47:10;1.55;;;1.17;;
24650;SDS011;12783;48.824;8.662;2022-08-11T15:49:39;3.75;;;1.42;;
24650;SDS011;12783;48.824;8.662;2022-08-11T15:52:29;3.05;;;1.10;;
24650;SDS011;12783;48.824;8.662;2022-08-11T15:54:59;3.40;;;1.17;;
24650;SDS011;12783;48.824;8.662;2022-08-11T15:57:34;3.83;;;1.17;;
24650;SDS011;12783;48.824;8.662;2022-08-11T16:00:20;2.83;;;1.38;;
24650;SDS011;12783;48.824;8.662;2022-08-11T16:03:06;3.33;;;1.35;;
24650;SDS011;12783;48.824;8.662;2022-08-11T16:06:12;2.97;;;1.30;;
24650;SDS011;12783;48.824;8.662;2022-08-11T16:08:40;3.58;;;1.65;;
24650;SDS011;12783;48.824;8.662;2022-08-11T16:11:09;5.78;;;3.10;;
24650;SDS011;12783;48.824;8.662;2022-08-11T16:13:36;1.90;;;1.40;;
24650;SDS011;12783;48.824;8.662;2022-08-11T16:16:07;5.85;;;1.27;;
24650;SDS011;12783;48.824;8.662;2022-08-11T16:18:43;5.90;;;1.50;;
24650;SDS011;12783;48.824;8.662;2022-08-11T16:21:18;5.25;;;1.20;;
24650;SDS011;12783;48.824;8.662;2022-08-11T16:24:00;1.17;;;1.05;;
24650;SDS011;12783;48.824;8.662;2022-08-11T16:26:31;3.63;;;1.42;;
24650;SDS011;12783;48.824;8.662;2022-08-11T16:29:22;2.38;;;1.27;;
24650;SDS011;12783;48.824;8.662;2022-08-11T16:31:50;4.45;;;1.25;;
24650;SDS011;12783;48.824;8.662;2022-08-11T16:34:35;3.88;;;1.20;;
24650;SDS011;12783;48.824;8.662;2022-08-11T16:37:22;3.33;;;1.70;;
24650;SDS011;12783;48.824;8.662;2022-08-11T16:40:08;1.27;;;1.17;;
24650;SDS011;12783;48.824;8.662;2022-08-11T16:42:36;1.33;;;1.10;;
24650;SDS011;12783;48.824;8.662;2022-08-11T16:45:37;3.35;;;1.17;;
24650;SDS011;12783;48.824;8.662;2022-08-11T16:48:23;3.55;;;0.90;;
24650;SDS011;12783;48.824;8.662;2022-08-11T16:51:02;3.70;;;0.90;;
24650;SDS011;12783;48.824;8.662;2022-08-11T16:53:30;1.27;;;1.17;;
24650;SDS011;12783;48.824;8.662;2022-08-11T16:56:40;1.70;;;1.10;;
24650;SDS011;12783;48.824;8.662;2022-08-11T16:59:08;1.63;;;1.30;;
24650;SDS011;12783;48.824;8.662;2022-08-11T17:01:48;3.13;;;1.10;;
24650;SDS011;12783;48.824;8.662;2022-08-11T17:07:24;3.03;;;1.30;;
24650;SDS011;12783;48.824;8.662;2022-08-11T17:10:12;4.35;;;1.20;;
24650;SDS011;12783;48.824;8.662;2022-08-11T17:13:28;5.25;;;1.10;;
24650;SDS011;12783;48.824;8.662;2022-08-11T17:16:01;1.50;;;1.20;;
24650;SDS011;12783;48.824;8.662;2022-08-11T17:18:37;1.30;;;1.15;;
24650;SDS011;12783;48.824;8.662;2022-08-11T17:26:38;1.85;;;1.23;;
24650;SDS011;12783;48.824;8.662;2022-08-11T17:29:26;1.25;;;0.98;;
24650;SDS011;12783;48.824;8.662;2022-08-11T17:31:54;6.78;;;1.38;;
24650;SDS011;12783;48.824;8.662;2022-08-11T17:34:44;3.50;;;1.20;;
24650;SDS011;12783;48.824;8.662;2022-08-11T17:37:30;3.28;;;1.20;;
24650;SDS011;12783;48.824;8.662;2022-08-11T17:39:58;5.25;;;1.40;;
24650;SDS011;12783;48.824;8.662;2022-08-11T17:42:27;1.67;;;1.15;;
24650;SDS011;12783;48.824;8.662;2022-08-11T17:45:15;2.35;;;1.20;;
24650;SDS011;12783;48.824;8.662;2022-08-11T17:48:02;2.33;;;1.30;;
24650;SDS011;12783;48.824;8.662;2022-08-11T17:50:48;2.63;;;1.33;;
24650;SDS011;12783;48.824;8.662;2022-08-11T17:53:17;2.13;;;1.10;;
24650;SDS011;12783;48.824;8.662;2022-08-11T17:56:03;2.95;;;1.20;;
24650;SDS011;12783;48.824;8.662;2022-08-11T17:58:49;1.58;;;1.15;;
24650;SDS011;12783;48.824;8.662;2022-08-11T18:01:37;2.13;;;1.17;;
24650;SDS011;12783;48.824;8.662;2022-08-11T18:04:06;3.45;;;1.33;;
24650;SDS011;12783;48.824;8.662;2022-08-11T18:06:35;3.53;;;1.40;;
24650;SDS011;12783;48.824;8.662;2022-08-11T18:09:04;7.38;;;1.50;;
24650;SDS011;12783;48.824;8.662;2022-08-11T18:11:53;1.50;;;1.27;;
24650;SDS011;12783;48.824;8.662;2022-08-11T18:14:41;3.22;;;1.13;;
24650;SDS011;12783;48.824;8.662;2022-08-11T18:17:31;2.65;;;1.25;;
24650;SDS011;12783;48.824;8.662;2022-08-11T18:20:17;7.53;;;1.33;;
24650;SDS011;12783;48.824;8.662;2022-08-11T18:23:04;3.67;;;1.23;;
24650;SDS011;12783;48.824;8.662;2022-08-11T18:26:12;2.20;;;1.15;;
24650;SDS011;12783;48.824;8.662;2022-08-11T18:29:01;5.20;;;1.20;;
24650;SDS011;12783;48.824;8.662;2022-08-11T18:31:47;3.03;;;1.48;;
24650;SDS011;12783;48.824;8.662;2022-08-11T18:34:35;1.77;;;1.30;;
24650;SDS011;12783;48.824;8.662;2022-08-11T18:37:25;1.40;;;1.15;;
24650;SDS011;12783;48.824;8.662;2022-08-11T18:40:16;2.92;;;1.10;;
24650;SDS011;12783;48.824;8.662;2022-08-11T18:43:04;1.27;;;1.17;;
24650;SDS011;12783;48.824;8.662;2022-08-11T18:45:53;4.28;;;1.30;;
24650;SDS011;12783;48.824;8.662;2022-08-11T18:48:45;4.13;;;1.25;;
24650;SDS011;12783;48.824;8.662;2022-08-11T18:51:38;1.35;;;1.25;;
24650;SDS011;12783;48.824;8.662;2022-08-11T18:54:24;3.08;;;1.27;;
24650;SDS011;12783;48.824;8.662;2022-08-11T18:57:09;2.05;;;1.20;;
24650;SDS011;12783;48.824;8.662;2022-08-11T19:00:02;2.58;;;1.33;;
24650;SDS011;12783;48.824;8.662;2022-08-11T19:02:48;3.03;;;1.35;;
24650;SDS011;12783;48.824;8.662;2022-08-11T19:05:34;9.10;;;1.30;;
24650;SDS011;12783;48.824;8.662;2022-08-11T19:08:41;1.80;;;1.42;;
24650;SDS011;12783;48.824;8.662;2022-08-11T19:11:31;2.78;;;1.40;;
24650;SDS011;12783;48.824;8.662;2022-08-11T19:14:17;2.63;;;1.30;;
24650;SDS011;12783;48.824;8.662;2022-08-11T19:17:03;2.13;;;1.30;;
24650;SDS011;12783;48.824;8.662;2022-08-11T19:20:11;3.22;;;1.27;;
24650;SDS011;12783;48.824;8.662;2022-08-11T19:22:58;1.60;;;1.23;;